Time;durP1;ratioP1;P1;durP2;ratioP2;P2;SDS_P1;SDS_P2;PMS_P1;PMS_P2;Temp;Humidity;BMP_temperature;BMP_pressure;BME280_temperature;BME280_humidity;BME280_pressure;Samples;Min_cycle;Max_cycle;Signal;HPM_P1;HPM_P2
2022/03/11 00:02:02;;;;;;;15.75;9.73;;;;;;;6.25;47.22;101756.13;4988595;28;20029;-83
2022/03/11 00:04:27;;;;;;;14.65;10.05;;;;;;;6.12;47.10;101747.31;4988138;28;20470;-83
2022/03/11 00:06:53;;;;;;;16.48;9.93;;;;;;;6.20;47.05;101760.69;4988861;28;20046;-83
2022/03/11 00:09:18;;;;;;;14.13;9.60;;;;;;;6.27;47.15;101774.91;4987521;28;20382;-83
2022/03/11 00:11:43;;;;;;;13.88;9.75;;;;;;;6.19;47.46;101755.56;4988103;28;20054;-83
2022/03/11 00:14:09;;;;;;;16.27;10.00;;;;;;;6.07;47.90;101744.13;4988074;28;20026;-83
2022/03/11 00:16:34;;;;;;;16.33;9.77;;;;;;;6.12;47.55;101747.31;4988061;28;20034;-82
2022/03/11 00:19:00;;;;;;;13.90;9.93;;;;;;;6.09;47.82;101750.06;4987641;28;20033;-83
2022/03/11 00:21:25;;;;;;;13.30;9.45;;;;;;;6.13;48.01;101759.28;4988009;28;20354;-83
2022/03/11 00:23:50;;;;;;;15.77;9.82;;;;;;;6.04;47.99;101754.59;4988497;28;20026;-83
2022/03/11 00:26:16;;;;;;;16.10;9.70;;;;;;;6.04;47.94;101765.72;4988044;28;20045;-82
2022/03/11 00:28:42;;;;;;;13.65;10.15;;;;;;;5.93;47.92;101752.53;4987972;28;20041;-82
2022/03/11 00:31:07;;;;;;;14.88;10.77;;;;;;;5.84;47.99;101742.59;4988156;28;20045;-83
2022/03/11 00:33:33;;;;;;;13.75;10.13;;;;;;;5.84;48.22;101737.47;4987976;28;20040;-83
2022/03/11 00:35:58;;;;;;;16.17;10.88;;;;;;;5.91;47.55;101758.59;4988787;28;20027;-82
2022/03/11 00:38:25;;;;;;;15.90;10.60;;;;;;;5.89;48.45;101755.28;4987979;28;20450;-83
2022/03/11 00:40:56;;;;;;;17.00;10.43;;;;;;;5.80;47.89;101741.94;4989626;28;20022;-82
2022/03/11 00:43:25;;;;;;;16.10;10.93;;;;;;;5.78;48.67;101742.91;4990301;28;20030;-82
2022/03/11 00:45:52;;;;;;;15.15;10.30;;;;;;;5.73;48.15;101727.66;4992502;28;20062;-83
2022/03/11 00:48:17;;;;;;;14.15;10.30;;;;;;;5.76;48.12;101739.56;4991689;28;20030;-82
2022/03/11 00:50:43;;;;;;;22.13;15.93;;;;;;;5.69;48.53;101749.31;4992182;28;20065;-82
2022/03/11 00:53:09;;;;;;;15.10;10.65;;;;;;;5.76;48.69;101750.69;4991031;28;20113;-82
2022/03/11 00:55:34;;;;;;;14.77;10.68;;;;;;;5.74;48.38;101742.22;4990303;28;20104;-83
2022/03/11 00:57:59;;;;;;;16.20;10.93;;;;;;;5.62;48.80;101727.34;4991776;28;20050;-82
2022/03/11 01:00:25;;;;;;;14.73;10.68;;;;;;;5.59;48.76;101732.63;4987343;28;20466;-83
2022/03/11 01:02:50;;;;;;;16.35;10.77;;;;;;;5.49;49.45;101721.09;4977044;28;20375;-81
2022/03/11 01:05:16;;;;;;;17.27;10.75;;;;;;;5.65;49.39;101737.50;4986555;28;20493;-83
2022/03/11 01:07:42;;;;;;;14.85;10.38;;;;;;;5.56;49.12;101727.63;4993144;28;20513;-82
2022/03/11 01:10:08;;;;;;;17.00;11.05;;;;;;;5.61;49.18;101735.97;4993732;28;20069;-82
2022/03/11 01:12:35;;;;;;;15.82;10.65;;;;;;;5.56;49.67;101737.91;4989686;28;20050;-83
2022/03/11 01:15:01;;;;;;;15.60;10.88;;;;;;;5.53;49.87;101730.34;4982907;28;20476;-82
2022/03/11 01:17:27;;;;;;;14.88;10.65;;;;;;;5.52;49.40;101724.38;4994479;28;20136;-83
2022/03/11 01:19:55;;;;;;;15.55;10.98;;;;;;;5.42;49.82;101709.41;4995229;28;20084;-83
2022/03/11 01:22:21;;;;;;;;;;;;;;;5.61;49.06;101723.09;4994551;28;20027;-81
2022/03/11 01:24:46;;;;;;;17.98;11.27;;;;;;;5.40;50.01;101706.09;4992602;28;19914;-83
2022/03/11 01:27:15;;;;;;;15.68;11.15;;;;;;;5.27;50.10;101680.91;4994069;28;20065;-83
2022/03/11 01:29:40;;;;;;;15.75;10.88;;;;;;;5.29;49.57;101694.53;4994051;28;20478;-82
2022/03/11 01:32:06;;;;;;;15.80;11.40;;;;;;;5.21;49.53;101685.50;4994023;28;20064;-82
2022/03/11 01:34:32;;;;;;;15.77;11.48;;;;;;;5.35;49.60;101702.88;4993267;28;20034;-83
2022/03/11 01:36:57;;;;;;;17.33;11.75;;;;;;;5.17;49.80;101669.38;4995186;28;20057;-83
2022/03/11 01:39:23;;;;;;;14.85;10.80;;;;;;;5.00;49.74;101653.91;4992624;28;20043;-82
2022/03/11 01:41:51;;;;;;;15.20;11.23;;;;;;;5.15;50.02;101681.47;4994743;28;20054;-82
2022/03/11 01:44:20;;;;;;;15.32;11.07;;;;;;;5.06;50.35;101661.31;4991831;28;20026;-83
2022/03/11 01:46:45;;;;;;;15.85;11.00;;;;;;;4.94;50.05;101643.88;4993517;28;20042;-83
2022/03/11 01:49:14;;;;;;;17.50;11.75;;;;;;;5.01;50.36;101653.81;4992912;28;20035;-90
2022/03/11 01:51:47;;;;;;;15.38;11.55;;;;;;;4.92;50.37;101641.38;4994338;28;20104;-90
2022/03/11 01:54:18;;;;;;;16.23;10.88;;;;;;;5.13;50.55;101678.13;4991848;28;20035;-90
2022/03/11 01:56:44;;;;;;;15.93;11.10;;;;;;;4.83;50.43;101616.09;4992131;28;20037;-88
2022/03/11 01:59:11;;;;;;;15.90;11.43;;;;;;;5.00;50.21;101638.47;4990877;28;20030;-89
2022/03/11 02:01:37;;;;;;;15.65;11.23;;;;;;;4.68;50.29;101589.31;4991314;28;20081;-88
2022/03/11 02:04:02;;;;;;;14.95;11.00;;;;;;;4.69;50.38;101585.84;4989796;28;20455;-86
2022/03/11 02:06:28;;;;;;;16.48;12.10;;;;;;;4.98;50.64;101622.25;4990860;28;20441;-90
2022/03/11 02:08:55;;;;;;;17.13;11.35;;;;;;;5.02;50.45;101628.94;4989186;28;20401;-89
2022/03/11 02:11:21;;;;;;;17.15;11.88;;;;;;;5.09;50.21;101645.75;4990228;28;20054;-88
2022/03/11 02:14:00;;;;;;;16.90;11.70;;;;;;;5.12;50.51;101645.63;4991073;28;20041;-88
2022/03/11 02:16:28;;;;;;;17.55;12.45;;;;;;;5.06;50.50;101633.03;4990075;28;20026;-85
2022/03/11 02:18:54;;;;;;;15.23;11.02;;;;;;;5.07;50.33;101632.97;4988928;28;20030;-87
2022/03/11 02:21:22;;;;;;;15.07;11.35;;;;;;;5.01;50.51;101629.84;4990445;28;20062;-87
2022/03/11 02:23:52;;;;;;;16.80;11.70;;;;;;;5.01;50.36;101622.13;4990477;28;20034;-87
2022/03/11 02:26:20;;;;;;;16.45;11.68;;;;;;;4.98;50.58;101617.13;4989758;28;20032;-87
2022/03/11 02:28:47;;;;;;;16.47;11.53;;;;;;;4.94;50.26;101618.19;4990010;28;20035;-85
2022/03/11 02:31:13;;;;;;;16.48;11.38;;;;;;;4.93;50.68;101608.78;4989969;28;20093;-83
2022/03/11 02:33:39;;;;;;;16.63;11.27;;;;;;;4.96;50.77;101618.94;4983765;28;20443;-87
2022/03/11 02:36:05;;;;;;;14.32;11.00;;;;;;;4.94;50.40;101615.59;4989470;28;20035;-88
2022/03/11 02:38:31;;;;;;;16.05;11.32;;;;;;;4.87;50.67;101603.91;4987544;28;20034;-88
2022/03/11 02:40:57;;;;;;;16.45;11.63;;;;;;;4.92;50.87;101612.25;4989511;28;20141;-86
2022/03/11 02:43:23;;;;;;;17.83;11.68;;;;;;;4.93;50.64;101613.91;4988416;28;20038;-86
2022/03/11 02:45:49;;;;;;;15.98;11.80;;;;;;;4.85;50.79;101609.13;4989614;28;20125;-87
2022/03/11 02:48:14;;;;;;;17.42;11.90;;;;;;;4.76;50.97;101592.41;4989779;28;20109;-88
2022/03/11 02:50:39;;;;;;;17.30;12.20;;;;;;;4.74;51.13;101589.06;4989522;28;20026;-87
2022/03/11 02:53:05;;;;;;;16.38;11.38;;;;;;;4.73;50.85;101577.13;4987962;28;20026;-87
2022/03/11 02:55:30;;;;;;;15.30;11.18;;;;;;;4.68;50.94;101573.09;4989149;28;20468;-87
2022/03/11 02:57:56;;;;;;;16.00;11.52;;;;;;;4.70;50.93;101576.41;4989415;28;20034;-88
2022/03/11 03:00:21;;;;;;;15.00;11.05;;;;;;;4.71;51.45;101584.06;4989011;28;20023;-87
2022/03/11 03:02:47;;;;;;;18.35;11.15;;;;;;;4.70;51.30;101582.41;4989072;28;20486;-87
2022/03/11 03:05:13;;;;;;;16.73;11.15;;;;;;;4.78;51.43;101595.72;4988869;28;20157;-86
2022/03/11 03:07:39;;;;;;;16.65;12.13;;;;;;;4.68;51.00;101591.91;4987612;28;20033;-90
2022/03/11 03:10:08;;;;;;;18.30;11.45;;;;;;;4.66;51.26;101596.28;4989335;28;20026;-90
2022/03/11 03:12:33;;;;;;;16.92;10.80;;;;;;;4.50;51.02;101572.16;4989093;28;20042;-91
2022/03/11 03:14:58;;;;;;;16.95;11.27;;;;;;;4.58;51.58;101582.94;4989810;28;20426;-91
2022/03/11 03:17:24;;;;;;;14.98;11.20;;;;;;;4.65;51.20;101594.63;4988560;28;20038;-89
2022/03/11 03:19:50;;;;;;;16.02;11.13;;;;;;;4.63;51.36;101591.25;4989324;28;20033;-92
2022/03/11 03:22:15;;;;;;;15.70;10.80;;;;;;;4.62;51.31;101584.47;4987272;28;20022;-88
2022/03/11 03:24:42;;;;;;;17.13;11.30;;;;;;;4.59;51.40;101574.34;4989405;28;20464;-88
2022/03/11 03:27:08;;;;;;;16.02;11.50;;;;;;;4.64;51.28;101587.78;4984287;28;20458;-87
2022/03/11 03:29:34;;;;;;;16.90;10.73;;;;;;;4.64;51.27;101582.66;4986913;28;20031;-86
2022/03/11 03:31:59;;;;;;;15.05;11.32;;;;;;;4.51;51.38;101561.81;4988661;28;20041;-88
2022/03/11 03:34:30;;;;;;;17.48;10.73;;;;;;;4.60;51.00;101583.72;4988945;28;20033;-88
2022/03/11 03:36:57;;;;;;;16.83;11.02;;;;;;;4.49;51.12;101567.94;4986766;28;20022;-89
2022/03/11 03:39:23;;;;;;;17.35;10.90;;;;;;;4.57;51.60;101581.25;4988683;28;20049;-89
2022/03/11 03:41:48;;;;;;;14.82;10.80;;;;;;;4.41;51.40;101559.72;4987012;28;20117;-89
2022/03/11 03:44:14;;;;;;;15.80;10.52;;;;;;;4.45;51.42;101561.25;4988507;28;20118;-87
2022/03/11 03:46:39;;;;;;;14.60;10.93;;;;;;;4.53;51.30;101579.75;4988841;28;20038;-88
2022/03/11 03:49:04;;;;;;;15.45;10.35;;;;;;;4.42;50.51;101561.41;4988637;28;20513;-84
2022/03/11 03:51:31;;;;;;;15.70;10.88;;;;;;;4.41;51.13;101570.81;4986794;28;20034;-87
2022/03/11 03:53:56;;;;;;;14.23;10.32;;;;;;;4.39;51.11;101557.22;4988472;28;20554;-85
2022/03/11 03:56:22;;;;;;;14.52;9.93;;;;;;;4.39;51.01;101561.53;4986659;28;20109;-88
2022/03/11 03:58:47;;;;;;;13.43;10.20;;;;;;;4.46;51.33;101568.06;4987106;28;20022;-88
2022/03/11 04:01:12;;;;;;;14.88;10.43;;;;;;;4.41;51.97;101572.56;4994741;28;20049;-87
2022/03/11 04:03:38;;;;;;;14.40;10.30;;;;;;;4.28;51.38;101548.31;4989529;28;20053;-87
2022/03/11 04:06:04;;;;;;;14.30;10.20;;;;;;;4.30;51.39;101549.09;4987003;28;20077;-88
2022/03/11 04:08:30;;;;;;;16.25;10.45;;;;;;;4.36;51.67;101566.78;4988227;28;20060;-89
2022/03/11 04:10:55;;;;;;;15.15;9.80;;;;;;;4.30;51.28;101551.66;4988297;28;20121;-89
2022/03/11 04:13:21;;;;;;;13.45;9.80;;;;;;;4.36;51.49;101566.78;4988669;28;20116;-88
2022/03/11 04:15:46;;;;;;;13.70;9.82;;;;;;;4.35;51.38;101570.25;4986929;28;20031;-90
2022/03/11 04:18:11;;;;;;;15.43;10.60;;;;;;;4.24;51.77;101553.63;4986836;28;20382;-87
2022/03/11 04:20:37;;;;;;;13.77;9.88;;;;;;;4.21;51.31;101543.47;4987988;28;20022;-88
2022/03/11 04:23:02;;;;;;;14.45;10.35;;;;;;;4.29;51.29;101561.09;4988547;28;20033;-88
2022/03/11 04:25:28;;;;;;;14.70;9.75;;;;;;;4.27;51.49;101562.91;4988201;28;20068;-87
2022/03/11 04:27:53;;;;;;;14.48;10.38;;;;;;;4.24;51.62;101563.88;4988645;28;20711;-87
2022/03/11 04:30:18;;;;;;;13.70;9.90;;;;;;;4.21;51.58;101548.59;4987867;28;20528;-89
2022/03/11 04:32:44;;;;;;;13.82;9.60;;;;;;;4.10;51.26;101527.69;4986376;28;20034;-87
2022/03/11 04:35:09;;;;;;;13.93;9.70;;;;;;;4.09;51.66;101533.72;4986599;28;20136;-87
2022/03/11 04:37:35;;;;;;;15.43;10.43;;;;;;;4.17;51.77;101547.06;4987975;28;20042;-86
2022/03/11 04:40:00;;;;;;;15.27;10.27;;;;;;;4.18;51.86;101551.28;4988351;28;20508;-87
2022/03/11 04:42:26;;;;;;;13.45;9.35;;;;;;;4.15;52.10;101551.44;4987559;28;20029;-87
2022/03/11 04:44:51;;;;;;;15.05;10.82;;;;;;;4.03;51.79;101523.72;4987542;28;20072;-87
2022/03/11 04:47:17;;;;;;;13.27;9.40;;;;;;;4.11;52.31;101547.31;4969901;28;20382;-83
2022/03/11 04:49:43;;;;;;;13.00;9.73;;;;;;;4.12;52.28;101543.00;4967113;28;20030;-85
2022/03/11 04:52:08;;;;;;;13.27;9.50;;;;;;;4.05;52.14;101542.44;4980412;28;20370;-85
2022/03/11 04:54:34;;;;;;;13.18;9.70;;;;;;;4.06;52.51;101549.25;4978295;28;20034;-85
2022/03/11 04:56:59;;;;;;;13.43;10.30;;;;;;;4.10;52.14;101563.63;4994162;28;20030;-87
2022/03/11 04:59:24;;;;;;;15.05;10.50;;;;;;;4.05;52.40;101547.59;4989027;28;20022;-88
2022/03/11 05:01:50;;;;;;;14.75;9.90;;;;;;;4.04;52.04;101540.78;4987476;28;20026;-87
2022/03/11 05:04:15;;;;;;;15.38;9.75;;;;;;;4.08;52.58;101541.50;4985939;28;20533;-86
2022/03/11 05:06:41;;;;;;;15.02;9.57;;;;;;;4.04;52.64;101530.53;4985671;28;20416;-89
2022/03/11 05:09:08;;;;;;;13.30;9.40;;;;;;;4.06;52.32;101538.16;4979789;28;20433;-86
2022/03/11 05:11:34;;;;;;;14.80;10.30;;;;;;;4.00;53.00;101534.09;4983275;28;20086;-85
2022/03/11 05:13:59;;;;;;;15.30;10.25;;;;;;;4.13;52.57;101544.69;4984132;28;20455;-86
2022/03/11 05:16:25;;;;;;;13.55;10.27;;;;;;;4.02;52.83;101522.06;4986537;28;20415;-89
2022/03/11 05:18:53;;;;;;;20.52;11.15;;;;;;;4.01;52.75;101520.38;4980051;28;20050;-87
2022/03/11 05:21:19;;;;;;;14.68;10.32;;;;;;;4.13;52.88;101540.41;4987002;28;20077;-89
2022/03/11 05:23:45;;;;;;;16.17;10.55;;;;;;;4.13;52.88;101544.69;4990306;28;20093;-88
2022/03/11 05:26:24;;;;;;;14.75;10.55;;;;;;;4.13;53.26;101534.41;4991115;28;20026;-86
2022/03/11 05:28:51;;;;;;;14.45;9.98;;;;;;;4.03;53.36;101517.75;4994587;28;20053;-87
2022/03/11 05:31:17;;;;;;;14.60;10.60;;;;;;;4.10;53.23;101529.44;4992585;28;20029;-87
2022/03/11 05:33:42;;;;;;;15.00;10.32;;;;;;;3.96;53.83;101517.19;4994629;28;20113;-85
2022/03/11 05:36:08;;;;;;;14.18;10.10;;;;;;;4.10;53.49;101525.13;4994306;28;20042;-86
2022/03/11 05:38:33;;;;;;;15.63;10.77;;;;;;;4.04;53.45;101520.25;4993025;28;20102;-87
2022/03/11 05:40:59;;;;;;;16.00;10.25;;;;;;;3.97;53.66;101514.56;4992636;28;20042;-89
2022/03/11 05:43:24;;;;;;;14.90;10.38;;;;;;;4.08;53.85;101532.06;4993061;28;20038;-85
2022/03/11 05:45:49;;;;;;;13.32;9.80;;;;;;;4.02;54.13;101506.66;4992576;28;20038;-82
2022/03/11 05:48:15;;;;;;;15.63;10.60;;;;;;;4.07;53.72;101517.56;4979320;28;20037;-83
2022/03/11 05:50:40;;;;;;;14.85;10.55;;;;;;;4.02;53.88;101504.09;4994454;28;20026;-84
2022/03/11 05:53:05;;;;;;;15.48;10.82;;;;;;;4.06;53.94;101513.31;4979876;28;20031;-83
2022/03/11 05:55:31;;;;;;;16.15;11.30;;;;;;;3.99;53.85;101506.78;4973906;28;20125;-82
2022/03/11 05:57:56;;;;;;;16.95;11.40;;;;;;;4.04;53.93;101520.25;5006031;28;20032;-76
2022/03/11 06:00:22;;;;;;;16.00;10.50;;;;;;;4.03;54.38;101513.47;4992516;28;20056;-87
2022/03/11 06:02:47;;;;;;;16.38;10.82;;;;;;;3.98;54.15;101507.69;4992349;28;20394;-86
2022/03/11 06:05:13;;;;;;;14.52;11.00;;;;;;;4.00;54.25;101513.56;4989811;28;20034;-89
2022/03/11 06:07:39;;;;;;;19.27;11.43;;;;;;;3.99;54.30;101509.34;4982714;28;20034;-88
2022/03/11 06:10:05;;;;;;;16.30;11.20;;;;;;;3.97;54.46;101504.28;4971399;28;20046;-85
2022/03/11 06:12:31;;;;;;;16.00;10.90;;;;;;;3.98;54.50;101500.00;4969393;28;20054;-86
2022/03/11 06:14:57;;;;;;;15.90;11.00;;;;;;;4.00;54.47;101505.88;4978935;28;20026;-90
2022/03/11 06:17:22;;;;;;;16.10;11.27;;;;;;;3.95;55.06;101500.09;4984439;28;20033;-85
2022/03/11 06:19:48;;;;;;;15.93;10.82;;;;;;;4.05;54.66;101511.66;4989525;28;20022;-88
2022/03/11 06:22:13;;;;;;;15.48;10.85;;;;;;;3.99;54.61;101506.78;4977572;28;20054;-91
2022/03/11 06:24:38;;;;;;;15.43;11.27;;;;;;;3.96;54.77;101494.09;4983163;28;20050;-90
2022/03/11 06:27:04;;;;;;;14.55;11.18;;;;;;;4.07;54.78;101509.88;4981402;28;20048;-91
2022/03/11 06:29:29;;;;;;;16.80;11.57;;;;;;;4.10;54.90;101514.03;4980412;28;20126;-91
2022/03/11 06:31:55;;;;;;;17.50;11.30;;;;;;;4.10;54.64;101509.72;4971271;28;20066;-89
2022/03/11 06:34:20;;;;;;;16.48;11.32;;;;;;;3.88;55.13;101478.19;4990329;28;20033;-92
2022/03/11 06:36:45;;;;;;;14.77;10.35;;;;;;;3.93;55.09;101482.22;4988289;28;20549;-92
2022/03/11 06:39:13;;;;;;;16.15;10.93;;;;;;;4.13;54.90;101519.88;4971560;28;20098;-89
2022/03/11 06:41:40;;;;;;;17.60;11.52;;;;;;;3.94;55.01;101478.75;4972133;28;20039;-89
2022/03/11 06:44:05;;;;;;;14.98;10.88;;;;;;;4.17;55.13;101516.25;4977276;28;20035;-86
2022/03/11 06:46:31;;;;;;;17.27;11.75;;;;;;;3.95;54.66;101479.56;4982625;28;20414;-90
2022/03/11 06:48:56;;;;;;;16.38;11.32;;;;;;;3.92;55.29;101472.84;4988800;28;20406;-89
2022/03/11 06:51:22;;;;;;;17.92;11.68;;;;;;;3.87;54.97;101453.44;4979527;28;20479;-91
2022/03/11 06:53:47;;;;;;;16.23;11.07;;;;;;;3.97;55.08;101473.50;4989304;28;20044;-89
2022/03/11 06:56:13;;;;;;;16.55;12.07;;;;;;;4.02;55.02;101481.00;4989644;28;20398;-89
2022/03/11 06:58:38;;;;;;;16.65;11.55;;;;;;;4.23;55.01;101507.44;4989238;28;20459;-87
2022/03/11 07:01:04;;;;;;;15.40;11.55;;;;;;;4.33;54.92;101523.28;4990219;28;20088;-88
2022/03/11 07:03:29;;;;;;;15.43;11.40;;;;;;;4.33;55.15;101515.59;4989170;28;20121;-89
2022/03/11 07:05:54;;;;;;;15.93;11.48;;;;;;;4.32;54.92;101499.34;4984168;28;20026;-89
2022/03/11 07:08:20;;;;;;;17.65;12.20;;;;;;;4.29;55.37;101493.50;4995094;28;20496;-90
2022/03/11 07:10:45;;;;;;;17.80;12.32;;;;;;;4.34;54.67;101492.38;4988233;28;20462;-90
2022/03/11 07:13:10;;;;;;;18.05;12.63;;;;;;;4.45;55.00;101502.19;4986795;28;20054;-86
2022/03/11 07:15:36;;;;;;;16.95;11.93;;;;;;;4.46;54.59;101502.09;4987426;28;20034;-91
2022/03/11 07:18:02;;;;;;;16.70;12.25;;;;;;;4.47;54.19;101492.66;4987881;28;20030;-87
2022/03/11 07:20:27;;;;;;;17.20;11.98;;;;;;;4.58;54.75;101503.28;4981146;28;20235;-90
2022/03/11 07:22:52;;;;;;;19.42;13.05;;;;;;;4.59;54.51;101497.28;4978696;28;20046;-90
2022/03/11 07:25:18;;;;;;;19.15;12.60;;;;;;;4.72;53.89;101506.06;4981751;28;20049;-88
2022/03/11 07:27:45;;;;;;;16.90;12.52;;;;;;;4.66;54.22;101488.38;4979934;28;20493;-91
2022/03/11 07:30:12;;;;;;;18.15;13.02;;;;;;;4.70;53.72;101495.03;4994187;28;20027;-89
2022/03/11 07:32:41;;;;;;;18.38;12.88;;;;;;;4.87;54.02;101508.81;4978225;28;20026;-86
2022/03/11 07:35:12;;;;;;;16.95;12.52;;;;;;;4.91;54.22;101510.34;4976999;28;20555;-90
2022/03/11 07:37:39;;;;;;;16.67;12.77;;;;;;;4.76;53.97;101479.34;4977766;28;20041;-90
2022/03/11 07:40:12;;;;;;;19.70;13.40;;;;;;;4.99;53.93;101503.13;4978892;28;20031;-87
2022/03/11 07:42:42;;;;;;;21.30;13.73;;;;;;;4.88;53.55;101477.09;4974752;28;20026;-90
2022/03/11 07:45:17;;;;;;;19.90;13.35;;;;;;;5.11;53.59;101505.09;4979069;28;20030;-89
2022/03/11 07:47:43;;;;;;;18.45;13.63;;;;;;;5.21;53.68;101505.47;4979334;28;20445;-86
2022/03/11 07:50:10;;;;;;;18.45;13.13;;;;;;;5.17;53.45;101493.69;4979024;28;20798;-90
2022/03/11 07:52:37;;;;;;;18.33;13.35;;;;;;;5.33;52.99;101505.75;4976804;28;20034;-85
2022/03/11 07:55:03;;;;;;;19.23;14.07;;;;;;;5.41;53.11;101501.94;4976924;28;20056;-90
2022/03/11 07:57:29;;;;;;;18.95;14.38;;;;;;;5.37;52.90;101479.84;4975432;28;20035;-90
2022/03/11 07:59:55;;;;;;;20.02;13.65;;;;;;;5.46;52.69;101479.41;4981598;28;20088;-88
2022/03/11 08:02:20;;;;;;;16.85;13.32;;;;;;;5.47;52.51;101470.78;4975472;28;20448;-89
2022/03/11 08:04:45;;;;;;;17.80;13.43;;;;;;;5.55;52.40;101473.78;4975096;28;20109;-89
2022/03/11 08:07:11;;;;;;;20.52;14.02;;;;;;;5.45;51.86;101446.84;4985482;28;20023;-90
2022/03/11 08:09:42;;;;;;;19.25;13.73;;;;;;;5.52;51.78;101458.53;4978315;28;20076;-90
2022/03/11 08:12:07;;;;;;;19.38;13.75;;;;;;;5.83;52.36;101504.13;4987553;28;20046;-89
2022/03/11 08:14:33;;;;;;;21.38;13.70;;;;;;;5.69;51.72;101466.22;4987772;28;20042;-90
2022/03/11 08:17:01;;;;;;;18.67;14.32;;;;;;;5.82;51.68;101472.41;4987693;28;20030;-91
2022/03/11 08:19:26;;;;;;;20.20;14.23;;;;;;;5.64;51.93;101421.88;4983911;28;20133;-89
2022/03/11 08:21:52;;;;;;;20.48;14.18;;;;;;;5.89;51.86;101448.91;4985067;28;20451;-89
2022/03/11 08:24:21;;;;;;;19.67;14.55;;;;;;;5.89;51.32;101436.03;4987305;28;20120;-89
2022/03/11 08:26:48;;;;;;;18.48;14.07;;;;;;;5.95;51.22;101433.16;4986851;28;20486;-90
2022/03/11 08:29:13;;;;;;;21.65;14.80;;;;;;;6.29;51.10;101476.84;4986149;28;20031;-87
2022/03/11 08:31:42;;;;;;;20.42;14.70;;;;;;;6.03;50.41;101418.16;4985895;28;20036;-89
2022/03/11 08:34:07;;;;;;;19.48;14.82;;;;;;;6.13;50.30;101421.88;4987999;28;20058;-90
2022/03/11 08:36:35;;;;;;;20.05;14.57;;;;;;;6.10;50.10;101404.88;4987686;28;20120;-88
2022/03/11 08:39:00;;;;;;;19.27;14.17;;;;;;;6.17;50.60;101405.38;4987870;28;20110;-91
2022/03/11 08:41:27;;;;;;;19.13;13.85;;;;;;;6.31;50.06;101410.63;4986057;28;20039;-90
2022/03/11 08:43:52;;;;;;;23.05;15.02;;;;;;;6.52;50.35;101438.69;4987911;28;20033;-89
2022/03/11 08:46:18;;;;;;;20.05;15.05;;;;;;;6.38;50.22;101388.75;4985789;28;20042;-89
2022/03/11 08:48:43;;;;;;;20.15;14.88;;;;;;;6.82;50.32;101451.63;4968685;28;20104;-86
2022/03/11 08:51:10;;;;;;;19.60;14.18;;;;;;;6.63;50.26;101408.00;4971341;28;20427;-89
2022/03/11 08:53:35;;;;;;;19.48;14.55;;;;;;;6.72;49.56;101407.50;4970261;28;20030;-87
2022/03/11 08:56:07;;;;;;;20.38;14.70;;;;;;;6.70;49.29;101385.28;4968096;28;20034;-89
2022/03/11 08:58:32;;;;;;;19.77;15.40;;;;;;;6.72;49.57;101378.31;4978558;28;20031;-89
2022/03/11 09:00:57;;;;;;;18.92;14.70;;;;;;;6.77;49.74;101374.56;4985770;28;20033;-89
2022/03/11 09:03:23;;;;;;;20.60;15.45;;;;;;;6.86;49.90;101378.34;4989465;28;20046;-90
2022/03/11 09:05:51;;;;;;;19.50;14.50;;;;;;;6.99;49.90;101378.47;4991718;28;20033;-91
2022/03/11 09:08:18;;;;;;;19.83;14.63;;;;;;;7.13;49.75;101396.56;4991655;28;20068;-88
2022/03/11 09:10:44;;;;;;;24.95;15.45;;;;;;;7.19;49.37;101383.31;4990995;28;20321;-88
2022/03/11 09:13:10;;;;;;;23.38;15.80;;;;;;;7.42;49.06;101412.94;4991401;28;20519;-90
2022/03/11 09:15:35;;;;;;;22.00;15.98;;;;;;;7.21;49.49;101367.75;4991183;28;20034;-91
2022/03/11 09:18:01;;;;;;;22.52;15.13;;;;;;;7.35;49.36;101391.00;4991781;28;20018;-90
2022/03/11 09:20:26;;;;;;;19.30;14.52;;;;;;;7.59;49.38;101419.69;4991272;28;20026;-90
2022/03/11 09:22:52;;;;;;;21.23;14.98;;;;;;;7.56;48.96;101399.19;4991190;28;20035;-89
2022/03/11 09:25:18;;;;;;;20.83;14.98;;;;;;;7.79;48.90;101431.38;4979285;28;20058;-91
2022/03/11 09:27:44;;;;;;;20.98;15.38;;;;;;;7.80;49.19;101414.97;4985959;28;20474;-86
2022/03/11 09:30:15;;;;;;;20.35;16.02;;;;;;;7.80;49.09;101392.56;4982604;28;20471;-90
2022/03/11 09:32:41;;;;;;;20.25;16.10;;;;;;;8.08;49.33;101427.84;4970851;28;20023;-90
2022/03/11 09:35:07;;;;;;;21.77;16.33;;;;;;;7.94;48.01;101379.63;4988262;28;20030;-89
2022/03/11 09:37:33;;;;;;;22.83;16.00;;;;;;;7.93;48.46;101372.81;4987899;28;20031;-90
2022/03/11 09:39:58;;;;;;;21.20;16.48;;;;;;;7.88;48.76;101359.34;4979247;28;20034;-89
2022/03/11 09:42:23;;;;;;;20.80;16.08;;;;;;;8.17;48.80;101395.47;4983705;28;20033;-89
2022/03/11 09:44:51;;;;;;;21.27;16.63;;;;;;;8.24;49.14;101378.66;4980325;28;20030;-88
2022/03/11 09:47:17;;;;;;;21.13;16.23;;;;;;;8.33;48.83;101365.16;4984165;28;20367;-89
2022/03/11 09:49:43;;;;;;;22.83;16.38;;;;;;;8.36;47.72;101364.97;4978389;28;20030;-90
2022/03/11 09:52:09;;;;;;;20.40;16.33;;;;;;;8.60;48.50;101382.44;4978964;28;20026;-88
2022/03/11 09:54:34;;;;;;;21.25;16.38;;;;;;;8.49;47.57;101363.28;4978209;28;20026;-89
2022/03/11 09:57:01;;;;;;;22.30;16.83;;;;;;;8.89;47.98;101409.00;4981626;28;20045;-88
2022/03/11 09:59:29;;;;;;;22.33;16.40;;;;;;;8.58;47.60;101342.91;4979292;28;20030;-88
2022/03/11 10:01:55;;;;;;;22.00;16.52;;;;;;;8.84;47.25;101375.69;4979599;28;20501;-89
2022/03/11 10:04:24;;;;;;;22.42;16.48;;;;;;;8.73;47.31;101347.09;4986337;28;20462;-90
2022/03/11 10:06:52;;;;;;;;;;;;;;;9.16;48.07;101398.59;4990379;28;20026;-87
2022/03/11 10:09:17;;;;;;;20.95;16.92;;;;;;;9.27;47.65;101393.53;4990917;28;19917;-89
2022/03/11 10:11:45;;;;;;;23.17;16.80;;;;;;;9.11;47.41;101352.31;4992698;28;20052;-90
2022/03/11 10:14:13;;;;;;;20.73;16.70;;;;;;;9.11;46.99;101341.97;4996739;28;20022;-90
2022/03/11 10:16:41;;;;;;;23.85;16.30;;;;;;;9.09;46.83;101322.31;4988813;28;20026;-89
2022/03/11 10:19:09;;;;;;;21.52;15.90;;;;;;;9.13;47.11;101323.75;4992992;28;20026;-88
2022/03/11 10:21:44;;;;;;;23.10;16.92;;;;;;;9.35;47.44;101336.06;5001812;28;20124;-88
2022/03/11 10:24:11;;;;;;;20.95;16.30;;;;;;;9.46;46.23;101349.09;4990663;28;20041;-89
2022/03/11 10:26:42;;;;;;;23.77;16.77;;;;;;;9.73;47.01;101372.28;4989149;28;20390;-90
2022/03/11 10:29:19;;;;;;;23.17;15.95;;;;;;;9.51;47.01;101329.72;4988666;28;20030;-89
2022/03/11 10:31:47;;;;;;;23.23;16.70;;;;;;;9.47;46.61;101311.94;4980787;28;20027;-88
2022/03/11 10:34:14;;;;;;;23.38;17.20;;;;;;;9.93;46.39;101361.38;4981197;28;20122;-88
2022/03/11 10:36:56;;;;;;;26.67;17.20;;;;;;;9.81;46.71;101326.78;4982666;28;20026;-90
2022/03/11 10:39:26;;;;;;;22.20;16.55;;;;;;;9.76;46.43;101318.50;4989343;28;20029;-88
2022/03/11 10:41:57;;;;;;;23.52;15.90;;;;;;;10.03;46.92;101336.44;4989657;28;20022;-89
2022/03/11 10:44:26;;;;;;;21.58;15.93;;;;;;;10.09;45.93;101324.81;4988968;28;20030;-88
2022/03/11 10:46:56;;;;;;;21.00;15.93;;;;;;;10.13;46.18;101320.25;4987810;28;20109;-89
2022/03/11 10:49:33;;;;;;;21.73;15.68;;;;;;;10.36;45.75;101353.13;4987884;28;20030;-86
2022/03/11 10:52:01;;;;;;;22.40;16.92;;;;;;;10.44;45.94;101344.81;4989361;28;20026;-88
2022/03/11 10:54:28;;;;;;;26.17;16.23;;;;;;;10.25;45.88;101298.63;4988946;28;20370;-88
2022/03/11 10:56:55;;;;;;;23.58;16.23;;;;;;;10.42;45.55;101310.38;4989625;28;20033;-88
2022/03/11 10:59:28;;;;;;;22.17;16.85;;;;;;;10.48;45.61;101315.94;4989571;28;20026;-88
2022/03/11 11:01:56;;;;;;;21.48;16.05;;;;;;;10.67;45.33;101330.16;4987797;28;20026;-87
2022/03/11 11:04:22;;;;;;;23.70;16.83;;;;;;;10.74;44.81;101331.38;4988011;28;20076;-89
2022/03/11 11:06:48;;;;;;;22.75;16.42;;;;;;;10.65;44.86;101312.09;4988584;28;20034;-87
2022/03/11 11:09:17;;;;;;;20.52;15.82;;;;;;;10.68;45.45;101295.50;4986071;28;20023;-88
2022/03/11 11:11:42;;;;;;;22.80;16.45;;;;;;;10.73;44.78;101299.41;4980238;28;20500;-88
2022/03/11 11:14:09;;;;;;;22.50;16.98;;;;;;;10.82;44.77;101314.28;4982944;28;20494;-89
2022/03/11 11:16:41;;;;;;;23.90;16.27;;;;;;;10.77;44.23;101294.78;4968240;28;20038;-90